Time;durP1;ratioP1;P1;durP2;ratioP2;P2;SDS_P1;SDS_P2;PMS_P1;PMS_P2;Temp;Humidity;BMP_temperature;BMP_pressure;BME280_temperature;BME280_humidity;BME280_pressure;Samples;Min_cycle;Max_cycle;Signal;HPM_P1;HPM_P2
2022/10/06 04:06:42;;;;;;;5.47;2.50;;;13.90;99.90;;;;;;4973060;28;21006;-67
2022/10/06 04:09:11;;;;;;;2.73;2.53;;;13.90;99.90;;;;;;4974588;28;20469;-67
2022/10/06 04:11:38;;;;;;;3.17;2.87;;;13.90;99.90;;;;;;4974741;28;20404;-68
2022/10/06 04:14:09;;;;;;;2.87;2.67;;;13.90;99.90;;;;;;4973787;28;20928;-67
2022/10/06 04:16:36;;;;;;;2.73;2.53;;;14.00;99.90;;;;;;4973176;28;20667;-69
2022/10/06 04:19:08;;;;;;;3.33;2.30;;;14.00;99.90;;;;;;4973462;28;20415;-66
2022/10/06 04:21:35;;;;;;;2.77;2.57;;;14.00;99.90;;;;;;4973473;28;20400;-68
2022/10/06 04:24:02;;;;;;;2.73;2.53;;;14.10;99.90;;;;;;4972413;28;20500;-68
2022/10/06 04:26:32;;;;;;;2.87;2.47;;;14.10;99.90;;;;;;4974237;28;20765;-68
2022/10/06 04:28:59;;;;;;;2.43;2.23;;;14.10;99.90;;;;;;4974425;28;20458;-68
2022/10/06 04:31:31;;;;;;;2.30;2.10;;;14.10;99.90;;;;;;4956868;28;20469;-68
2022/10/06 04:33:59;;;;;;;3.97;2.83;;;14.20;99.90;;;;;;4972433;28;20465;-68
2022/10/06 04:36:27;;;;;;;3.77;2.37;;;14.10;99.90;;;;;;4974288;28;20407;-68
2022/10/06 04:38:57;;;;;;;5.17;3.10;;;14.10;99.90;;;;;;4974375;28;20789;-67
2022/10/06 04:41:27;;;;;;;2.70;2.50;;;14.10;99.90;;;;;;4974217;28;20450;-68
2022/10/06 04:43:53;;;;;;;4.07;3.37;;;14.10;99.90;;;;;;4973559;28;20773;-67
2022/10/06 04:46:20;;;;;;;3.33;2.60;;;14.10;99.90;;;;;;4974046;28;20431;-68
2022/10/06 04:48:46;;;;;;;2.47;2.27;;;14.10;99.90;;;;;;4974318;28;20968;-68
2022/10/06 04:51:14;;;;;;;3.23;2.63;;;14.10;99.90;;;;;;4974390;28;20924;-68
2022/10/06 04:53:43;;;;;;;2.63;2.43;;;14.20;99.90;;;;;;4973951;28;20436;-68
2022/10/06 04:56:14;;;;;;;2.50;2.30;;;14.20;99.90;;;;;;4974414;28;20407;-67
2022/10/06 04:58:42;;;;;;;3.63;3.30;;;14.30;99.90;;;;;;4956788;28;20926;-67
2022/10/06 05:01:17;;;;;;;3.23;3.03;;;14.20;99.90;;;;;;4975940;28;20514;-69
2022/10/06 05:03:44;;;;;;;3.00;2.70;;;14.30;99.90;;;;;;4977077;28;20458;-68
2022/10/06 05:06:15;;;;;;;4.20;3.90;;;14.30;99.90;;;;;;4977657;28;20435;-68
2022/10/06 05:08:42;;;;;;;5.77;3.97;;;14.30;99.90;;;;;;4977706;28;20857;-69
2022/10/06 05:11:10;;;;;;;3.87;3.53;;;14.30;99.90;;;;;;4959730;28;20451;-68
2022/10/06 05:13:37;;;;;;;2.63;2.50;;;14.30;99.90;;;;;;4977103;28;20470;-68
2022/10/06 05:16:05;;;;;;;5.57;3.60;;;14.30;99.90;;;;;;4977682;28;20418;-68
2022/10/06 05:18:32;;;;;;;3.43;2.53;;;14.30;99.90;;;;;;4977238;28;20462;-67
2022/10/06 05:21:12;;;;;;;2.83;2.63;;;14.40;99.90;;;;;;4976518;28;20430;-68
2022/10/06 05:23:39;;;;;;;4.60;4.10;;;14.40;99.90;;;;;;4976526;28;20888;-70
2022/10/06 05:26:06;;;;;;;3.80;3.40;;;14.30;99.90;;;;;;4968699;28;20511;-68
2022/10/06 05:28:32;;;;;;;6.43;3.90;;;14.30;99.90;;;;;;4974255;28;20459;-66
2022/10/06 05:31:00;;;;;;;5.90;4.70;;;14.30;99.90;;;;;;4958998;28;20432;-68
2022/10/06 05:33:30;;;;;;;8.10;4.17;;;14.30;99.90;;;;;;4957425;28;20447;-68
2022/10/06 05:35:58;;;;;;;12.83;4.13;;;14.30;99.90;;;;;;4958095;29;20411;-68
2022/10/06 05:38:26;;;;;;;8.50;4.40;;;14.30;99.90;;;;;;4957824;29;20432;-67
2022/10/06 05:41:02;;;;;;;5.67;3.50;;;14.30;99.90;;;;;;4975958;28;20829;-68
2022/10/06 05:43:28;;;;;;;3.93;3.40;;;14.40;99.90;;;;;;4975678;28;20459;-70
2022/10/06 05:45:56;;;;;;;5.13;3.80;;;14.40;99.90;;;;;;4970226;28;20421;-68
2022/10/06 05:48:22;;;;;;;4.60;4.23;;;14.50;99.90;;;;;;4976341;28;20466;-67
2022/10/06 05:50:56;;;;;;;3.57;3.27;;;14.50;99.90;;;;;;4973832;28;20748;-69
2022/10/06 05:53:22;;;;;;;12.03;7.63;;;14.60;99.90;;;;;;4975892;28;20774;-69
2022/10/06 05:55:47;;;;;;;5.20;4.27;;;14.50;99.90;;;;;;4976408;28;20420;-69
2022/10/06 05:58:13;;;;;;;4.30;3.90;;;14.50;99.90;;;;;;4976294;28;20184;-69
2022/10/06 06:00:39;;;;;;;4.07;3.67;;;14.50;99.90;;;;;;4976284;28;20255;-69
2022/10/06 06:03:09;;;;;;;4.00;3.40;;;14.50;99.90;;;;;;4973351;28;20955;-69
2022/10/06 06:05:41;;;;;;;4.10;3.47;;;14.50;99.90;;;;;;4976000;28;20432;-71
2022/10/06 06:08:09;;;;;;;3.40;3.20;;;14.50;99.90;;;;;;4975606;28;20455;-69
2022/10/06 06:10:34;;;;;;;2.83;2.63;;;14.60;99.90;;;;;;4975390;28;20434;-70
2022/10/06 06:13:00;;;;;;;3.73;2.77;;;14.70;99.90;;;;;;4975131;28;20490;-71
2022/10/06 06:18:19;;;;;;;4.13;3.20;;;14.80;99.90;;;;;;4976545;28;20673;-71
2022/10/06 06:20:54;;;;;;;3.13;2.80;;;14.90;99.90;;;;;;4975980;28;20936;-71
2022/10/06 06:23:20;;;;;;;5.10;4.10;;;15.10;99.90;;;;;;4957853;28;20432;-71
2022/10/06 06:25:59;;;;;;;7.97;3.90;;;15.10;99.90;;;;;;4975576;28;20490;-69
2022/10/06 06:28:27;;;;;;;4.23;3.80;;;15.20;99.90;;;;;;4965188;28;20230;-68
2022/10/06 06:31:06;;;;;;;5.27;3.90;;;15.30;99.90;;;;;;4975261;28;20829;-71
2022/10/06 06:33:32;;;;;;;4.20;2.97;;;15.40;99.90;;;;;;4975576;28;20431;-69
2022/10/06 06:36:01;;;;;;;7.57;4.70;;;15.50;99.90;;;;;;4974606;28;20945;-69
2022/10/06 06:38:27;;;;;;;3.70;3.37;;;15.60;99.90;;;;;;4975903;28;20759;-70
2022/10/06 06:40:53;;;;;;;6.30;4.00;;;15.60;99.90;;;;;;4975337;28;20430;-71
2022/10/06 06:43:18;;;;;;;7.10;4.63;;;15.70;99.90;;;;;;4975554;28;20424;-71
2022/10/06 06:45:44;;;;;;;4.57;4.17;;;15.70;99.90;;;;;;4975590;28;20635;-70
2022/10/06 06:48:14;;;;;;;3.80;3.50;;;15.80;99.90;;;;;;4975530;28;20531;-71
2022/10/06 06:50:40;;;;;;;3.40;3.10;;;15.80;99.90;;;;;;4975220;28;20256;-69
2022/10/06 06:53:06;;;;;;;4.13;3.63;;;15.90;99.90;;;;;;4974643;28;20431;-70
2022/10/06 06:55:31;;;;;;;4.00;3.70;;;16.00;99.90;;;;;;4975077;28;20770;-70
2022/10/06 06:57:57;;;;;;;3.67;3.33;;;16.00;99.90;;;;;;4974363;28;20665;-71
2022/10/06 07:00:23;;;;;;;4.03;3.57;;;16.10;99.90;;;;;;4971961;28;20190;-70
2022/10/06 07:02:54;;;;;;;3.57;3.27;;;16.20;99.90;;;;;;4973339;28;20271;-70
2022/10/06 07:05:21;;;;;;;5.10;4.60;;;16.40;99.90;;;;;;4973967;28;20283;-69
2022/10/06 07:07:47;;;;;;;3.33;3.03;;;16.50;99.90;;;;;;4973893;28;20503;-71
2022/10/06 07:10:14;;;;;;;4.00;3.57;;;16.60;99.90;;;;;;4973316;28;20933;-70
2022/10/06 07:12:39;;;;;;;5.80;4.70;;;16.80;99.90;;;;;;4973335;28;20184;-71
2022/10/06 07:26:04;;;;;;;3.40;3.07;;;17.40;99.90;;;;;;4974706;28;20464;-71
2022/10/06 07:28:29;;;;;;;3.90;3.50;;;17.40;99.90;;;;;;4974017;28;20459;-71
2022/10/06 07:30:58;;;;;;;3.43;3.07;;;17.50;99.90;;;;;;4973692;28;20168;-71
2022/10/06 07:33:23;;;;;;;3.97;3.13;;;17.60;99.90;;;;;;4971361;28;20187;-70
2022/10/06 07:35:49;;;;;;;4.30;3.23;;;17.60;99.90;;;;;;4974170;28;20396;-70
2022/10/06 07:38:14;;;;;;;3.40;2.97;;;17.60;99.90;;;;;;4973674;28;20208;-71
2022/10/06 07:40:40;;;;;;;5.43;3.10;;;17.60;99.90;;;;;;4973880;28;20178;-71
2022/10/06 07:43:05;;;;;;;5.77;3.10;;;17.60;99.90;;;;;;4973625;28;20180;-70
2022/10/06 07:45:37;;;;;;;5.90;4.50;;;17.60;99.90;;;;;;4973843;28;20290;-71
2022/10/06 07:48:17;;;;;;;5.63;2.70;;;17.60;99.90;;;;;;4971150;28;20211;-70
2022/10/06 07:50:44;;;;;;;3.30;3.10;;;17.60;99.90;;;;;;4966022;28;20518;-70
2022/10/06 07:53:11;;;;;;;6.63;3.40;;;17.60;99.90;;;;;;4953651;28;20383;-70
2022/10/06 07:55:38;;;;;;;7.60;3.57;;;17.70;99.90;;;;;;4954883;28;20413;-70
2022/10/06 07:58:16;;;;;;;3.63;3.33;;;17.70;99.90;;;;;;4954949;28;20464;-70
2022/10/06 08:00:43;;;;;;;2.50;2.30;;;17.80;99.90;;;;;;4965121;28;20424;-70
2022/10/06 08:03:10;;;;;;;3.13;2.10;;;17.80;99.90;;;;;;4973171;28;20435;-71
2022/10/06 08:05:38;;;;;;;7.33;2.40;;;18.00;99.90;;;;;;4935333;28;1113295;-71
2022/10/06 08:08:04;;;;;;;2.37;1.90;;;18.20;99.90;;;;;;4975517;28;20207;-71
2022/10/06 08:10:30;;;;;;;6.40;2.63;;;18.40;99.90;;;;;;4974470;28;20435;-70
2022/10/06 08:12:55;;;;;;;2.10;2.00;;;18.50;99.90;;;;;;4974211;28;20419;-71
2022/10/06 08:15:21;;;;;;;2.07;1.97;;;18.60;99.90;;;;;;4974620;28;20443;-70
2022/10/06 08:17:46;;;;;;;2.70;2.50;;;18.60;99.90;;;;;;4974635;28;20195;-71
2022/10/06 08:20:12;;;;;;;2.93;1.80;;;18.60;99.90;;;;;;4974372;28;20623;-70
2022/10/06 08:22:39;;;;;;;1.90;1.60;;;18.60;99.90;;;;;;4974286;28;20623;-69
2022/10/06 08:25:08;;;;;;;3.30;2.10;;;18.50;99.90;;;;;;4974735;28;20287;-71
2022/10/06 08:27:35;;;;;;;5.70;2.17;;;18.40;99.90;;;;;;4973757;28;20427;-71
2022/10/06 08:30:02;;;;;;;2.00;1.80;;;18.40;99.90;;;;;;4974184;28;20790;-71
2022/10/06 08:32:28;;;;;;;4.23;1.70;;;18.20;99.90;;;;;;4974179;28;20444;-71
2022/10/06 08:34:54;;;;;;;2.70;1.90;;;18.20;99.90;;;;;;4974079;28;20443;-70
2022/10/06 08:37:22;;;;;;;2.13;2.03;;;18.30;99.90;;;;;;4978152;28;20415;-71
2022/10/06 08:39:52;;;;;;;2.27;1.80;;;18.20;99.90;;;;;;4978322;28;20579;-71
2022/10/06 08:42:41;;;;;;;1.30;1.30;;;18.20;99.90;;;;;;4978106;28;20833;-71
2022/10/06 08:45:22;;;;;;;1.70;1.60;;;18.20;99.90;;;;;;4978351;28;20428;-70
2022/10/06 08:48:27;;;;;;;3.43;2.00;;;18.20;99.90;;;;;;4978179;28;20451;-73
2022/10/06 08:51:08;;;;;;;1.80;1.40;;;18.20;99.90;;;;;;4960187;28;20929;-68
2022/10/06 08:53:45;;;;;;;2.27;1.37;;;18.20;99.90;;;;;;4977469;28;20435;-69
2022/10/06 08:56:25;;;;;;;1.57;1.23;;;18.30;99.90;;;;;;4978041;28;20400;-72
2022/10/06 08:59:02;;;;;;;3.80;1.43;;;18.40;99.90;;;;;;4977404;28;20465;-69
2022/10/06 09:01:42;;;;;;;1.50;1.40;;;18.30;99.90;;;;;;4975540;28;20423;-69
2022/10/06 09:04:15;;;;;;;4.03;1.23;;;18.40;99.90;;;;;;4976837;28;20434;-71
2022/10/06 09:06:54;;;;;;;3.83;1.30;;;18.40;99.90;;;;;;4978002;28;20419;-70
2022/10/06 09:09:42;;;;;;;2.10;1.90;;;18.40;99.90;;;;;;4977966;28;20451;-71
2022/10/06 09:12:26;;;;;;;3.10;2.33;;;18.50;99.90;;;;;;4941469;28;20503;-70
2022/10/06 09:15:18;;;;;;;2.40;1.23;;;18.50;99.90;;;;;;4959681;28;20458;-71
2022/10/06 09:17:53;;;;;;;1.40;1.30;;;18.50;99.90;;;;;;4969509;28;20470;-70
2022/10/06 09:20:51;;;;;;;1.80;1.20;;;18.50;99.90;;;;;;4977358;28;20407;-70
2022/10/06 09:23:46;;;;;;;2.67;1.43;;;18.50;99.90;;;;;;4959356;28;20463;-71
2022/10/06 09:26:04;;;;;;;1.43;1.33;;;18.50;99.90;;;;;;4976679;28;20459;-69
2022/10/06 09:28:30;;;;;;;1.40;1.30;;;18.70;99.90;;;;;;4976791;28;20493;-70
2022/10/06 09:30:59;;;;;;;1.10;1.10;;;18.80;99.90;;;;;;4976899;28;20427;-70
2022/10/06 09:33:30;;;;;;;1.43;1.33;;;18.90;99.90;;;;;;4976519;28;20204;-70
2022/10/06 09:36:09;;;;;;;2.60;1.60;;;19.00;99.90;;;;;;4977057;28;20415;-70
2022/10/06 09:38:52;;;;;;;1.20;1.17;;;19.10;99.90;;;;;;4959686;28;20421;-71
2022/10/06 09:41:39;;;;;;;2.87;1.27;;;19.20;99.90;;;;;;4976413;28;20554;-71
2022/10/06 09:44:20;;;;;;;1.37;1.20;;;19.40;99.90;;;;;;4976505;28;20570;-71
2022/10/06 09:46:46;;;;;;;1.80;1.10;;;19.60;99.90;;;;;;4975525;28;20457;-70
2022/10/06 09:49:15;;;;;;;1.87;1.07;;;20.00;99.90;;;;;;4975950;28;20499;-70
2022/10/06 09:51:55;;;;;;;1.97;1.20;;;20.10;99.90;;;;;;4975755;28;20169;-70
2022/10/06 09:54:21;;;;;;;1.13;1.13;;;20.20;99.90;;;;;;4955518;29;20523;-71
2022/10/06 09:56:46;;;;;;;1.20;1.10;;;20.30;99.90;;;;;;4957797;28;20487;-70
2022/10/06 09:59:22;;;;;;;4.33;1.10;;;20.20;99.90;;;;;;4957759;29;20409;-70
2022/10/06 10:01:54;;;;;;;1.67;1.30;;;20.20;99.90;;;;;;4940319;28;20188;-70
2022/10/06 10:04:31;;;;;;;2.03;1.10;;;20.30;99.90;;;;;;4956997;29;20428;-72
2022/10/06 10:07:13;;;;;;;2.23;1.37;;;20.30;99.90;;;;;;4957501;28;20408;-70
2022/10/06 10:09:40;;;;;;;5.80;1.40;;;20.30;99.90;;;;;;4970249;28;20910;-71
2022/10/06 10:12:31;;;;;;;6.10;1.37;;;20.30;99.90;;;;;;4975823;28;20786;-70
2022/10/06 10:15:10;;;;;;;3.93;1.97;;;20.10;99.90;;;;;;4976473;28;20420;-70
2022/10/06 10:17:47;;;;;;;1.30;1.20;;;19.90;99.90;;;;;;4958437;28;20430;-70
2022/10/06 10:20:27;;;;;;;2.17;1.40;;;19.80;99.90;;;;;;4976559;28;20399;-69
2022/10/06 10:22:54;;;;;;;1.20;1.10;;;19.80;99.90;;;;;;4976130;28;20457;-70
2022/10/06 10:25:43;;;;;;;1.47;1.10;;;19.80;99.90;;;;;;4976293;28;20431;-69
2022/10/06 10:28:16;;;;;;;1.27;0.87;;;19.90;99.90;;;;;;4976410;28;20550;-70
2022/10/06 10:31:03;;;;;;;1.90;0.90;;;20.20;99.90;;;;;;4976033;28;20447;-68
2022/10/06 10:33:41;;;;;;;1.83;0.80;;;20.60;99.90;;;;;;4975919;28;20501;-69
2022/10/06 10:36:11;;;;;;;0.80;0.80;;;21.10;99.90;;;;;;4976274;28;20373;-69
2022/10/06 10:38:39;;;;;;;2.73;0.97;;;21.60;99.90;;;;;;4975795;28;20437;-70
2022/10/06 10:41:19;;;;;;;0.80;0.80;;;22.00;98.70;;;;;;4975400;28;20407;-70
2022/10/06 10:44:13;;;;;;;0.70;0.70;;;22.30;98.00;;;;;;4974932;28;20447;-70
2022/10/06 10:46:54;;;;;;;0.90;0.90;;;22.40;97.00;;;;;;4975935;28;20831;-69
2022/10/06 10:49:27;;;;;;;1.27;1.17;;;22.60;96.90;;;;;;4976075;28;20549;-69
2022/10/06 10:51:55;;;;;;;2.20;1.10;;;22.60;96.90;;;;;;4975564;28;20444;-69
2022/10/06 10:54:42;;;;;;;1.10;1.00;;;22.60;96.50;;;;;;4975344;28;20513;-68
2022/10/06 10:57:34;;;;;;;1.40;0.80;;;22.90;96.90;;;;;;4975881;28;20404;-69
2022/10/06 11:00:04;;;;;;;1.37;1.27;;;23.20;96.20;;;;;;4975663;28;20915;-70
2022/10/06 11:02:30;;;;;;;3.43;1.07;;;23.30;96.00;;;;;;4975287;28;20408;-70
2022/10/06 11:05:13;;;;;;;3.53;0.97;;;23.30;95.70;;;;;;4958015;28;21004;-68
2022/10/06 11:07:42;;;;;;;1.27;1.10;;;22.80;95.00;;;;;;4975588;28;20491;-70
2022/10/06 11:10:24;;;;;;;1.53;1.10;;;22.30;95.60;;;;;;4974447;28;20428;-69
2022/10/06 11:13:09;;;;;;;5.67;1.30;;;21.90;96.40;;;;;;4975338;28;20479;-69
2022/10/06 11:15:38;;;;;;;2.13;1.20;;;21.60;97.10;;;;;;4974717;28;20488;-69
2022/10/06 11:18:45;;;;;;;2.23;1.20;;;21.40;97.90;;;;;;4975332;28;20477;-70
2022/10/06 11:21:40;;;;;;;2.10;1.20;;;21.10;97.80;;;;;;4966007;28;20855;-66
2022/10/06 11:24:15;;;;;;;1.10;1.00;;;20.90;98.30;;;;;;4945400;29;20493;-68
2022/10/06 11:27:01;;;;;;;1.63;1.53;;;20.80;98.60;;;;;;4956108;29;20404;-70
2022/10/06 11:29:45;;;;;;;1.80;1.23;;;20.80;98.50;;;;;;4954574;29;20503;-70
2022/10/06 11:32:49;;;;;;;1.93;1.43;;;20.80;98.40;;;;;;4954918;28;20449;-69
2022/10/06 11:35:25;;;;;;;1.30;0.97;;;20.80;97.80;;;;;;4975256;28;20920;-65
2022/10/06 11:38:18;;;;;;;1.50;1.07;;;20.90;98.00;;;;;;4957716;28;20938;-69
2022/10/06 11:41:17;;;;;;;1.20;1.20;;;21.00;97.90;;;;;;4975067;28;20404;-69
2022/10/06 11:44:08;;;;;;;1.40;1.30;;;21.00;98.00;;;;;;4974414;28;20479;-70
2022/10/06 11:47:00;;;;;;;1.93;1.30;;;21.00;98.80;;;;;;4957344;28;20458;-70
2022/10/06 11:49:29;;;;;;;0.93;0.93;;;20.90;97.30;;;;;;4971671;28;20568;-71
2022/10/06 11:51:56;;;;;;;3.03;1.60;;;20.70;97.70;;;;;;4957250;28;20427;-70
2022/10/06 11:54:46;;;;;;;0.90;0.90;;;20.70;98.10;;;;;;4974298;28;20793;-69
2022/10/06 11:57:26;;;;;;;2.30;1.37;;;20.80;98.50;;;;;;4974310;28;20401;-70
2022/10/06 11:59:55;;;;;;;1.30;1.20;;;20.90;97.90;;;;;;4974709;28;20467;-70
2022/10/06 12:02:37;;;;;;;0.90;0.83;;;21.10;98.20;;;;;;4973158;28;20399;-70
2022/10/06 12:05:09;;;;;;;2.50;1.20;;;21.30;98.70;;;;;;4959908;28;20434;-71
2022/10/06 12:07:53;;;;;;;2.00;1.00;;;21.40;97.20;;;;;;4968272;28;20419;-70
2022/10/06 12:10:28;;;;;;;2.00;1.60;;;21.50;97.70;;;;;;4973543;28;20508;-69
2022/10/06 12:13:12;;;;;;;1.67;1.00;;;21.60;97.00;;;;;;4973459;28;20493;-71
2022/10/06 12:15:52;;;;;;;2.63;1.20;;;21.50;96.80;;;;;;4956549;28;21031;-70
2022/10/06 12:18:30;;;;;;;1.20;1.10;;;21.50;97.10;;;;;;4974793;28;20410;-70
2022/10/06 12:21:19;;;;;;;4.93;1.90;;;21.30;97.30;;;;;;4974214;28;20424;-70
2022/10/06 12:24:00;;;;;;;1.13;1.10;;;21.10;97.80;;;;;;4964592;28;20414;-70
2022/10/06 12:26:58;;;;;;;5.13;1.20;;;20.80;97.90;;;;;;4973143;28;20766;-70
2022/10/06 12:29:35;;;;;;;1.70;1.17;;;20.30;98.90;;;;;;4965195;28;20459;-70
2022/10/06 12:32:14;;;;;;;1.23;1.13;;;20.10;99.10;;;;;;4974174;28;20797;-70
2022/10/06 12:35:02;;;;;;;1.57;1.40;;;19.90;99.40;;;;;;4974004;28;20427;-69
2022/10/06 12:37:27;;;;;;;1.53;1.43;;;19.70;99.70;;;;;;4973593;28;20422;-70
2022/10/06 12:40:30;;;;;;;1.90;1.20;;;19.70;99.90;;;;;;4973904;28;20420;-69
2022/10/06 12:43:17;;;;;;;3.43;1.20;;;19.70;99.90;;;;;;4974164;28;20569;-70
2022/10/06 12:45:47;;;;;;;1.40;1.30;;;19.70;99.90;;;;;;4974069;28;20869;-69
2022/10/06 12:48:32;;;;;;;1.00;1.00;;;19.60;99.70;;;;;;4973907;28;20455;-69
2022/10/06 12:51:19;;;;;;;2.73;1.63;;;19.50;99.90;;;;;;4974078;28;20423;-71
2022/10/06 12:53:55;;;;;;;1.10;1.10;;;19.50;99.90;;;;;;4973765;28;20978;-70
2022/10/06 12:56:32;;;;;;;2.30;1.37;;;19.40;99.90;;;;;;4972110;28;20419;-70
2022/10/06 12:59:23;;;;;;;1.10;1.10;;;19.40;99.90;;;;;;4974111;28;20407;-71
2022/10/06 13:01:51;;;;;;;1.27;1.17;;;19.40;99.90;;;;;;4974049;28;20960;-70
2022/10/06 13:04:55;;;;;;;2.67;1.23;;;19.40;99.90;;;;;;4972773;28;20922;-70
2022/10/06 13:07:26;;;;;;;0.90;0.90;;;19.40;99.90;;;;;;4956597;28;20431;-71
2022/10/06 13:10:14;;;;;;;1.53;1.30;;;19.40;99.90;;;;;;4973187;28;20490;-70
2022/10/06 13:12:45;;;;;;;3.00;1.47;;;19.30;99.90;;;;;;4972067;28;20493;-61
2022/10/06 13:15:29;;;;;;;5.20;1.40;;;19.30;99.90;;;;;;4973564;28;20941;-63
2022/10/06 13:18:06;;;;;;;1.20;1.10;;;19.20;99.90;;;;;;4955718;28;20439;-62
2022/10/06 13:20:39;;;;;;;5.87;1.27;;;19.20;99.90;;;;;;4973872;28;20438;-62
2022/10/06 13:23:14;;;;;;;1.37;1.30;;;19.20;99.90;;;;;;4976613;28;20415;-61
2022/10/06 13:25:43;;;;;;;1.80;1.70;;;19.10;99.90;;;;;;4976920;28;20423;-62
2022/10/06 13:28:28;;;;;;;1.47;1.40;;;19.00;99.90;;;;;;4976811;28;20469;-62
2022/10/06 13:30:57;;;;;;;2.97;2.20;;;19.00;99.90;;;;;;4975305;28;20968;-63
2022/10/06 13:33:25;;;;;;;1.27;1.17;;;19.00;99.90;;;;;;4976955;28;20408;-61
2022/10/06 13:35:52;;;;;;;2.20;1.10;;;19.10;99.90;;;;;;4976959;28;20482;-62
2022/10/06 13:38:19;;;;;;;1.40;1.27;;;19.10;99.90;;;;;;4977240;28;20451;-72
2022/10/06 13:41:20;;;;;;;0.90;0.90;;;19.10;99.90;;;;;;4977124;28;20435;-72
2022/10/06 13:43:54;;;;;;;1.40;1.20;;;19.20;99.90;;;;;;4976859;28;20431;-70
2022/10/06 13:46:22;;;;;;;1.10;1.00;;;19.30;99.90;;;;;;4959812;28;20478;-69
2022/10/06 13:49:10;;;;;;;0.93;0.90;;;19.30;99.90;;;;;;4976808;28;20455;-71
2022/10/06 13:51:36;;;;;;;1.57;1.17;;;19.40;99.90;;;;;;4976915;28;20411;-71
2022/10/06 13:54:30;;;;;;;3.43;1.43;;;19.40;99.90;;;;;;4959315;28;20443;-70
2022/10/06 13:56:57;;;;;;;2.80;1.13;;;19.50;99.90;;;;;;4972359;28;20259;-73
2022/10/06 13:59:33;;;;;;;3.30;1.20;;;19.50;99.90;;;;;;4957122;29;20528;-71
2022/10/06 14:02:23;;;;;;;3.20;1.30;;;19.60;99.90;;;;;;4957408;29;20467;-70
2022/10/06 14:05:28;;;;;;;2.10;1.30;;;19.50;99.60;;;;;;4962177;28;20550;-70
2022/10/06 14:08:09;;;;;;;1.30;1.20;;;19.40;99.50;;;;;;4976459;28;20813;-73
2022/10/06 14:10:44;;;;;;;0.97;0.97;;;19.30;99.90;;;;;;4976762;28;20407;-71
2022/10/06 14:13:18;;;;;;;8.20;1.40;;;19.20;99.90;;;;;;4976127;28;20411;-74
2022/10/06 14:15:48;;;;;;;1.70;1.10;;;19.10;99.90;;;;;;4976056;28;20420;-73
2022/10/06 14:18:35;;;;;;;1.33;1.03;;;19.00;99.90;;;;;;4958937;28;20504;-66
2022/10/06 14:21:30;;;;;;;3.20;1.33;;;19.00;99.90;;;;;;4976378;28;20830;-67
2022/10/06 14:23:58;;;;;;;5.63;1.80;;;18.90;99.90;;;;;;4975699;28;20431;-67
2022/10/06 14:26:30;;;;;;;4.80;1.00;;;18.90;99.90;;;;;;4975431;28;20587;-67
2022/10/06 14:28:56;;;;;;;2.10;1.30;;;18.80;99.90;;;;;;4976184;28;20502;-70
2022/10/06 14:31:24;;;;;;;1.20;0.87;;;18.70;99.90;;;;;;4976316;28;20410;-66
2022/10/06 14:33:52;;;;;;;0.70;0.70;;;18.70;99.90;;;;;;4975134;28;20960;-66
2022/10/06 14:36:31;;;;;;;1.20;0.87;;;18.60;99.90;;;;;;4975901;28;20986;-73
2022/10/06 14:38:58;;;;;;;2.93;0.90;;;18.60;99.90;;;;;;4976242;28;20766;-74
2022/10/06 14:41:26;;;;;;;2.50;1.10;;;18.60;99.90;;;;;;4976043;28;20865;-74
2022/10/06 14:43:56;;;;;;;2.37;1.20;;;18.60;99.90;;;;;;4975602;28;20442;-75
2022/10/06 14:46:24;;;;;;;0.70;0.70;;;18.60;99.90;;;;;;4975833;28;20478;-74
2022/10/06 14:48:50;;;;;;;1.10;1.00;;;18.50;99.90;;;;;;4975950;28;20451;-74
2022/10/06 14:51:17;;;;;;;1.03;0.77;;;18.60;99.90;;;;;;4958377;28;20437;-74
2022/10/06 14:53:43;;;;;;;3.57;1.37;;;18.50;99.90;;;;;;4975332;28;20918;-74
2022/10/06 14:56:13;;;;;;;1.20;1.10;;;18.40;99.90;;;;;;4975396;28;20431;-74
2022/10/06 14:58:44;;;;;;;0.97;0.60;;;18.40;99.90;;;;;;4975769;28;20198;-74
2022/10/06 15:01:11;;;;;;;1.47;0.90;;;18.40;99.90;;;;;;4958118;28;20423;-75
2022/10/06 15:03:37;;;;;;;1.20;1.10;;;18.40;99.90;;;;;;4975201;28;20431;-74
2022/10/06 15:08:51;;;;;;;1.77;1.23;;;18.30;99.90;;;;;;4975846;28;20213;-75
2022/10/06 15:11:21;;;;;;;1.07;0.97;;;18.30;99.90;;;;;;4975554;28;20404;-73
2022/10/06 15:13:47;;;;;;;2.00;1.13;;;18.20;99.90;;;;;;4975010;28;20423;-70
2022/10/06 15:16:16;;;;;;;0.80;0.80;;;18.10;99.90;;;;;;4975071;28;20429;-69
2022/10/06 15:18:43;;;;;;;2.70;1.50;;;18.10;99.90;;;;;;4975162;28;20408;-68
2022/10/06 15:21:10;;;;;;;0.90;0.90;;;18.10;99.90;;;;;;4975172;28;20920;-70
2022/10/06 15:23:36;;;;;;;3.47;1.00;;;18.00;99.90;;;;;;4974415;28;20778;-68
2022/10/06 15:29:02;;;;;;;4.03;1.30;;;17.90;99.90;;;;;;4975130;28;20463;-73
2022/10/06 15:31:32;;;;;;;1.20;1.10;;;17.90;99.90;;;;;;4974904;28;20417;-72
2022/10/06 15:34:00;;;;;;;3.27;1.33;;;17.80;99.90;;;;;;4974373;28;20486;-70
2022/10/06 15:36:31;;;;;;;0.90;0.90;;;17.90;99.90;;;;;;4975011;28;20426;-71
2022/10/06 15:38:57;;;;;;;3.67;1.30;;;17.80;99.90;;;;;;4975128;28;20411;-71
2022/10/06 15:41:23;;;;;;;2.03;1.10;;;17.80;99.90;;;;;;4974468;28;20414;-69
2022/10/06 15:43:56;;;;;;;1.27;0.80;;;17.80;99.90;;;;;;4973867;28;20194;-71
2022/10/06 15:46:24;;;;;;;1.93;1.20;;;17.80;99.90;;;;;;4956635;28;20543;-72
2022/10/06 15:48:52;;;;;;;2.50;0.83;;;17.80;99.90;;;;;;4974977;28;20557;-69
2022/10/06 15:51:18;;;;;;;2.23;1.00;;;17.80;99.90;;;;;;4974469;28;20414;-72
2022/10/06 15:53:44;;;;;;;1.27;0.80;;;17.80;99.90;;;;;;4973959;28;20794;-73
2022/10/06 15:56:10;;;;;;;7.27;4.83;;;17.80;99.90;;;;;;4974826;28;20825;-73
2022/10/06 15:58:36;;;;;;;6.77;4.17;;;17.80;99.90;;;;;;4974671;28;20515;-73
2022/10/06 16:01:02;;;;;;;3.30;1.87;;;17.80;99.90;;;;;;4957259;28;20429;-75
2022/10/06 16:03:36;;;;;;;2.63;1.47;;;17.80;99.90;;;;;;4973815;28;20199;-74
2022/10/06 16:06:04;;;;;;;1.23;1.13;;;17.80;99.90;;;;;;4974420;28;20500;-75
2022/10/06 16:08:34;;;;;;;1.17;0.90;;;17.80;99.90;;;;;;4974524;28;20822;-76
2022/10/06 16:11:00;;;;;;;1.60;0.87;;;17.70;99.90;;;;;;4974678;28;20409;-76
2022/10/06 16:13:26;;;;;;;2.30;1.30;;;17.70;99.90;;;;;;4973654;28;20512;-75
2022/10/06 16:15:56;;;;;;;3.43;0.90;;;17.70;99.90;;;;;;4974403;28;20412;-75
2022/10/06 16:18:21;;;;;;;2.07;1.97;;;17.60;99.90;;;;;;4974551;28;20171;-74
2022/10/06 16:20:54;;;;;;;2.97;1.23;;;17.60;99.90;;;;;;4974450;28;20405;-75
2022/10/06 16:23:21;;;;;;;2.70;1.87;;;17.50;99.90;;;;;;4973660;28;20198;-72
2022/10/06 16:25:47;;;;;;;2.30;1.20;;;17.50;99.90;;;;;;4974219;28;20385;-75
2022/10/06 16:28:13;;;;;;;3.80;1.83;;;17.50;99.90;;;;;;4973788;28;20524;-76
2022/10/06 16:30:39;;;;;;;1.90;1.80;;;17.50;99.90;;;;;;4974214;28;20401;-73
2022/10/06 16:33:04;;;;;;;2.13;1.93;;;17.40;99.90;;;;;;4974050;28;20907;-75
2022/10/06 16:35:30;;;;;;;1.90;1.60;;;17.30;99.90;;;;;;4956784;28;20175;-76
2022/10/06 16:37:55;;;;;;;1.77;1.67;;;17.30;99.90;;;;;;4964063;28;20174;-73
2022/10/06 16:40:21;;;;;;;4.47;1.57;;;17.20;99.90;;;;;;4970206;28;20233;-72
2022/10/06 16:42:48;;;;;;;2.63;1.80;;;17.10;99.90;;;;;;4955979;28;20212;-74
2022/10/06 16:45:14;;;;;;;4.40;1.93;;;17.00;99.90;;;;;;4973609;28;20944;-75
2022/10/06 16:47:40;;;;;;;1.60;1.50;;;17.00;99.90;;;;;;4973976;28;20413;-75
2022/10/06 16:50:06;;;;;;;2.20;2.00;;;16.90;99.90;;;;;;4973748;28;20683;-74
2022/10/06 16:52:31;;;;;;;1.93;1.70;;;16.80;99.90;;;;;;4973040;28;20417;-74
2022/10/06 16:54:57;;;;;;;3.47;2.33;;;16.70;99.90;;;;;;4973590;28;20494;-72
2022/10/06 16:57:23;;;;;;;1.57;1.47;;;16.60;99.90;;;;;;4977128;28;20255;-72
2022/10/06 16:59:50;;;;;;;3.13;1.97;;;16.50;99.90;;;;;;4977574;28;20307;-72
2022/10/06 17:02:15;;;;;;;3.70;2.40;;;16.30;99.90;;;;;;4977492;28;20837;-70
2022/10/06 17:04:41;;;;;;;2.77;2.57;;;16.30;99.90;;;;;;4977370;28;20464;-71
2022/10/06 17:07:07;;;;;;;4.57;2.37;;;16.20;99.90;;;;;;4977439;28;20411;-70
2022/10/06 17:09:32;;;;;;;3.40;3.13;;;16.10;99.90;;;;;;4977689;28;20210;-73
2022/10/06 17:12:00;;;;;;;4.27;3.80;;;16.00;99.90;;;;;;4977051;28;20195;-72
2022/10/06 17:14:29;;;;;;;4.80;3.70;;;16.00;99.90;;;;;;4977135;28;20211;-72
2022/10/06 17:16:55;;;;;;;4.07;3.10;;;16.00;99.90;;;;;;4977748;28;20401;-69
2022/10/06 17:19:24;;;;;;;3.43;2.60;;;16.00;99.90;;;;;;4977702;28;20409;-66
2022/10/06 17:21:50;;;;;;;2.10;2.00;;;16.00;99.90;;;;;;4959812;28;20755;-65
2022/10/06 17:24:17;;;;;;;2.37;1.87;;;16.00;99.90;;;;;;4977103;28;20961;-65
2022/10/06 17:26:45;;;;;;;3.70;2.57;;;16.00;99.90;;;;;;4977437;28;20427;-65
2022/10/06 17:29:13;;;;;;;4.03;2.53;;;16.00;99.90;;;;;;4977237;28;20818;-66
2022/10/06 17:31:41;;;;;;;4.27;3.17;;;16.00;99.90;;;;;;4977194;28;20938;-66
2022/10/06 17:34:13;;;;;;;2.40;2.30;;;16.10;99.90;;;;;;4976699;28;20427;-65
2022/10/06 17:36:40;;;;;;;3.20;2.90;;;16.10;99.90;;;;;;4977345;28;20432;-64
2022/10/06 17:39:09;;;;;;;2.67;2.47;;;16.10;99.90;;;;;;4976803;28;20777;-66